BAW461 LEMD-EGLL
Flight info
| Callsign | BAW461 |
|---|---|
| Flight time | N/A |
| Altitude | 34000 |
| Route | SIE N858 DGO N867 NENEM/N0482F380 DCT YURZI DCT ERIGA DCT ARTIV DCT REVTU/N0474F340 UP87 ROXOG |
| Aircraft | B77W |
Departure
| Time | N/A |
|---|---|
| Airport | Adolfo Suárez Madrid–Barajas Airport (LEMD) |
Arrival
| Time | 2026-05-07 18:53 |
|---|---|
| Airport | London Heathrow Airport (EGLL) |
| Time | Latitude | Longitude | Altitude | Speed | Heading |
|---|---|---|---|---|---|
| 2026-05-07 18:42 | 51.48758 | -0.63047 | 15037 ft | 370 kts | 1° |
| 2026-05-07 18:42 | 51.51325 | -0.62903 | 14163 ft | 367 kts | 1° |
| 2026-05-07 18:42 | 51.53861 | -0.62771 | 13248 ft | 363 kts | 1° |
| 2026-05-07 18:42 | 51.56379 | -0.62646 | 12291 ft | 359 kts | 1° |
| 2026-05-07 18:43 | 51.58860 | -0.62527 | 11392 ft | 354 kts | 1° |
| 2026-05-07 18:43 | 51.61302 | -0.62409 | 10503 ft | 349 kts | 1° |
| 2026-05-07 18:43 | 51.63685 | -0.62641 | 9579 ft | 341 kts | 346° |
| 2026-05-07 18:43 | 51.65825 | -0.64117 | 8613 ft | 331 kts | 324° |
| 2026-05-07 18:44 | 51.67393 | -0.66713 | 7711 ft | 321 kts | 300° |
| 2026-05-07 18:44 | 51.68117 | -0.70073 | 7356 ft | 321 kts | 275° |
| 2026-05-07 18:44 | 51.67926 | -0.73614 | 7170 ft | 318 kts | 252° |
| 2026-05-07 18:44 | 51.66866 | -0.76716 | 7042 ft | 318 kts | 228° |
| 2026-05-07 18:45 | 51.65191 | -0.78988 | 6978 ft | 315 kts | 214° |
| 2026-05-07 18:45 | 51.63393 | -0.80846 | 6872 ft | 296 kts | 211° |
| 2026-05-07 18:45 | 51.61675 | -0.82517 | 6488 ft | 283 kts | 211° |
| 2026-05-07 18:45 | 51.60005 | -0.84129 | 5872 ft | 275 kts | 211° |
| 2026-05-07 18:46 | 51.58388 | -0.85689 | 5328 ft | 266 kts | 211° |
| 2026-05-07 18:46 | 51.56766 | -0.87177 | 5135 ft | 272 kts | 202° |
| 2026-05-07 18:46 | 51.54987 | -0.87820 | 5024 ft | 250 kts | 184° |
| 2026-05-07 18:46 | 51.53354 | -0.87951 | 5001 ft | 222 kts | 181° |
| 2026-05-07 18:47 | 51.51886 | -0.87979 | 4964 ft | 201 kts | 172° |
| 2026-05-07 18:47 | 51.50525 | -0.87580 | 4610 ft | 201 kts | 167° |
| 2026-05-07 18:47 | 51.49295 | -0.86619 | 4292 ft | 197 kts | 132° |
| 2026-05-07 18:47 | 51.48524 | -0.84888 | 4091 ft | 192 kts | 122° |
| 2026-05-07 18:48 | 51.47870 | -0.83056 | 4030 ft | 188 kts | 107° |
| 2026-05-07 18:48 | 51.47716 | -0.81012 | 4063 ft | 185 kts | 92° |
| 2026-05-07 18:48 | 51.47668 | -0.78916 | 3851 ft | 188 kts | 91° |
| 2026-05-07 18:48 | 51.47654 | -0.76853 | 3587 ft | 183 kts | 90° |
| 2026-05-07 18:49 | 51.47656 | -0.74848 | 3353 ft | 176 kts | 90° |
| 2026-05-07 18:49 | 51.47662 | -0.72924 | 3118 ft | 169 kts | 90° |
| 2026-05-07 18:49 | 51.47669 | -0.71090 | 2877 ft | 161 kts | 91° |
| 2026-05-07 18:49 | 51.47675 | -0.69294 | 2693 ft | 164 kts | 91° |
| 2026-05-07 18:50 | 51.47682 | -0.67441 | 2470 ft | 167 kts | 91° |
| 2026-05-07 18:50 | 51.47689 | -0.65593 | 2233 ft | 165 kts | 91° |
| 2026-05-07 18:50 | 51.47695 | -0.63780 | 2012 ft | 161 kts | 91° |
| 2026-05-07 18:50 | 51.47702 | -0.62015 | 1823 ft | 154 kts | 92° |
| 2026-05-07 18:51 | 51.47708 | -0.60326 | 1575 ft | 148 kts | 92° |
| 2026-05-07 18:51 | 51.47715 | -0.58707 | 1252 ft | 143 kts | 91° |
| 2026-05-07 18:51 | 51.47718 | -0.57149 | 1046 ft | 139 kts | 92° |
| 2026-05-07 18:51 | 51.47719 | -0.55600 | 868 ft | 136 kts | 92° |
| 2026-05-07 18:52 | 51.47738 | -0.54087 | 812 ft | 136 kts | 90° |
| 2026-05-07 18:52 | 51.47759 | -0.52544 | 606 ft | 137 kts | 93° |
| 2026-05-07 18:52 | 51.47739 | -0.51051 | 412 ft | 131 kts | 92° |
| 2026-05-07 18:52 | 51.47754 | -0.49575 | 262 ft | 133 kts | 92° |
| 2026-05-07 18:53 | 51.47757 | -0.48086 | 102 ft | 131 kts | 93° |
| 2026-05-07 18:53 | 51.47756 | -0.46764 | 97 ft | 96 kts | 90° |
| 2026-05-07 18:53 | 51.47688 | -0.46120 | 95 ft | 22 kts | 145° |
| 2026-05-07 18:53 | 51.47625 | -0.46067 | 96 ft | 0 kts | 171° |
| 2026-05-07 18:54 | 51.47621 | -0.46066 | 95 ft | 0 kts | 171° |
| 2026-05-07 18:54 | 51.47620 | -0.46066 | 95 ft | 0 kts | 172° |
| 2026-05-07 18:54 | 51.47617 | -0.46066 | 95 ft | 1 kts | 179° |
| 2026-05-07 18:54 | 51.47580 | -0.46073 | 95 ft | 13 kts | 190° |
| 2026-05-07 18:55 | 51.47520 | -0.46177 | 96 ft | 13 kts | 257° |
| 2026-05-07 18:55 | 51.47515 | -0.46330 | 92 ft | 14 kts | 269° |
| 2026-05-07 18:55 | 51.47515 | -0.46484 | 92 ft | 14 kts | 270° |
| 2026-05-07 18:55 | 51.47515 | -0.46639 | 92 ft | 14 kts | 269° |
| 2026-05-07 18:56 | 51.47497 | -0.46795 | 94 ft | 14 kts | 256° |
| 2026-05-07 18:56 | 51.47492 | -0.46956 | 92 ft | 14 kts | 270° |
| 2026-05-07 18:56 | 51.47492 | -0.47119 | 92 ft | 15 kts | 269° |
| 2026-05-07 18:56 | 51.47491 | -0.47290 | 92 ft | 16 kts | 269° |
| 2026-05-07 18:57 | 51.47489 | -0.47469 | 94 ft | 16 kts | 270° |
| 2026-05-07 18:57 | 51.47490 | -0.47651 | 93 ft | 16 kts | 270° |
| 2026-05-07 18:57 | 51.47481 | -0.47811 | 95 ft | 14 kts | 242° |
| 2026-05-07 18:57 | 51.47397 | -0.47868 | 95 ft | 14 kts | 185° |
| 2026-05-07 18:58 | 51.47300 | -0.47878 | 92 ft | 14 kts | 180° |
| 2026-05-07 18:58 | 51.47238 | -0.47884 | 92 ft | 7 kts | 203° |
| 2026-05-07 18:58 | 51.47216 | -0.47955 | 96 ft | 8 kts | 262° |
| 2026-05-07 18:58 | 51.47213 | -0.48022 | 92 ft | 0 kts | 269° |